createdAt,value
2023-04-17T00:05:00.602Z,10.65
2023-04-17T00:10:02.120Z,10.83
2023-04-17T00:15:03.918Z,10.85
2023-04-17T00:20:06.057Z,10.93
2023-04-17T00:25:08.231Z,10.90
2023-04-17T00:30:10.086Z,10.75
2023-04-17T00:35:12.639Z,10.71
2023-04-17T00:40:14.482Z,10.65
2023-04-17T00:45:16.007Z,10.61
2023-04-17T00:50:17.839Z,10.60
2023-04-17T00:55:20.365Z,10.61
2023-04-17T01:00:21.903Z,10.75
2023-04-17T01:05:25.329Z,10.90
2023-04-17T01:10:26.918Z,10.68
2023-04-17T01:15:28.604Z,10.68
2023-04-17T01:20:30.488Z,10.92
2023-04-17T01:25:32.069Z,10.94
2023-04-17T01:30:33.754Z,10.98
2023-04-17T01:35:38.386Z,10.98
2023-04-17T01:40:39.845Z,10.93
2023-04-17T01:45:41.326Z,10.98
2023-04-17T01:50:42.774Z,10.83
2023-04-17T01:55:44.436Z,10.93
2023-04-17T02:00:47.059Z,11.03
2023-04-17T02:05:48.597Z,11.00
2023-04-17T02:10:50.296Z,11.03
2023-04-17T02:15:51.835Z,10.77
2023-04-17T02:20:53.400Z,10.76
2023-04-17T02:25:54.964Z,11.02
2023-04-17T02:30:56.543Z,11.13
2023-04-17T02:35:58.044Z,11.07
2023-04-17T02:41:07.036Z,11.06
2023-04-17T02:46:09.265Z,10.91
2023-04-17T02:51:10.905Z,10.78
2023-04-17T02:56:12.413Z,10.80
2023-04-17T03:01:14.106Z,10.63
2023-04-17T03:06:18.573Z,10.48
2023-04-17T03:11:20.114Z,10.35
2023-04-17T03:16:21.712Z,10.51
2023-04-17T03:21:23.469Z,10.45
2023-04-17T03:26:25.307Z,10.52
2023-04-17T03:31:26.985Z,10.59
2023-04-17T03:36:28.549Z,10.66
2023-04-17T03:41:30.417Z,10.64
2023-04-17T03:46:32.402Z,10.64
2023-04-17T03:51:34.012Z,10.62
2023-04-17T03:56:43.125Z,10.62
2023-04-17T04:01:46.800Z,10.50
2023-04-17T04:06:53.130Z,10.49
2023-04-17T04:11:55.604Z,10.53
2023-04-17T04:16:57.194Z,10.57
2023-04-17T04:21:59.944Z,10.56
2023-04-17T04:27:09.715Z,10.61
2023-04-17T04:32:11.378Z,10.66
2023-04-17T04:37:16.845Z,10.71
2023-04-17T04:42:19.920Z,10.69
2023-04-17T04:47:29.511Z,10.66
2023-04-17T04:52:31.085Z,10.62
2023-04-17T04:57:37.216Z,10.57
2023-04-17T05:02:39.118Z,10.59
2023-04-17T05:07:43.866Z,10.57
2023-04-17T05:12:49.153Z,10.62
2023-04-17T05:17:51.366Z,10.51
2023-04-17T05:22:53.044Z,10.62
2023-04-17T05:27:56.737Z,10.78
2023-04-17T05:32:58.619Z,10.82
2023-04-17T05:38:23.429Z,10.85
2023-04-17T05:43:25.025Z,10.70
2023-04-17T05:48:29.228Z,10.63
2023-04-17T05:53:31.166Z,10.69
2023-04-17T05:58:33.888Z,10.61
2023-04-17T06:03:35.629Z,10.66
2023-04-17T06:08:47.800Z,10.80
2023-04-17T06:13:49.404Z,10.92
2023-04-17T06:18:52.629Z,10.73
2023-04-17T06:23:55.219Z,10.64
2023-04-17T06:28:56.640Z,10.71
2023-04-17T06:33:59.626Z,10.87
2023-04-17T06:39:04.924Z,11.03
2023-04-17T06:44:07.419Z,11.20
2023-04-17T06:49:20.327Z,11.38
2023-04-17T06:54:21.942Z,11.48
2023-04-17T06:59:23.450Z,11.52
2023-04-17T07:04:24.976Z,11.61
2023-04-17T07:09:26.509Z,11.59
2023-04-17T07:14:27.956Z,11.67
2023-04-17T07:19:29.383Z,11.70
2023-04-17T07:24:30.908Z,11.86
2023-04-17T07:29:32.694Z,11.66
2023-04-17T07:34:34.096Z,11.76
2023-04-17T07:39:35.662Z,11.86
2023-04-17T07:44:38.904Z,11.94
2023-04-17T07:49:40.413Z,11.94
2023-04-17T07:54:41.873Z,11.92
2023-04-17T07:59:43.618Z,12.07
2023-04-17T08:04:45.796Z,12.17
2023-04-17T08:09:47.478Z,12.26
2023-04-17T08:14:48.994Z,12.47
2023-04-17T08:19:50.456Z,12.78
2023-04-17T08:24:52.188Z,12.90
2023-04-17T08:29:54.276Z,13.04
2023-04-17T08:34:58.044Z,13.18
2023-04-17T08:39:59.549Z,13.53
2023-04-17T08:45:04.706Z,13.94
2023-04-17T08:50:07.539Z,13.89
2023-04-17T08:55:11.590Z,13.61
2023-04-17T09:00:13.648Z,13.70
2023-04-17T09:05:24.787Z,13.75
2023-04-17T09:10:35.638Z,13.71
2023-04-17T09:15:37.198Z,14.00
2023-04-17T09:20:49.338Z,14.52
2023-04-17T09:26:06.173Z,14.81
2023-04-17T09:31:24.867Z,14.91
2023-04-17T09:36:27.944Z,14.96
2023-04-17T09:41:30.584Z,15.06
2023-04-17T09:46:36.286Z,15.00
2023-04-17T09:51:38.124Z,15.07
2023-04-17T09:56:39.734Z,15.22
2023-04-17T10:01:41.755Z,15.42
2023-04-17T10:06:43.228Z,15.55
2023-04-17T10:11:46.911Z,15.90
2023-04-17T10:16:48.765Z,15.88
2023-04-17T10:22:18.035Z,15.72
2023-04-17T10:27:25.230Z,15.50
2023-04-17T10:32:27.771Z,15.45
2023-04-17T10:37:47.544Z,15.67
2023-04-17T10:43:07.654Z,15.88
2023-04-17T10:48:19.916Z,16.07
2023-04-17T10:53:42.279Z,16.10
2023-04-17T10:58:55.615Z,16.20
2023-04-17T11:03:57.705Z,16.17
2023-04-17T11:09:00.055Z,16.06
2023-04-17T11:14:05.696Z,16.04
2023-04-17T11:19:11.895Z,16.03
2023-04-17T11:24:13.680Z,16.32
2023-04-17T11:29:16.225Z,16.71
2023-04-17T11:34:18.626Z,16.94
2023-04-17T11:39:22.470Z,17.05
2023-04-17T11:44:25.264Z,17.09
2023-04-17T11:49:28.513Z,17.10
2023-04-17T11:54:31.985Z,16.88
2023-04-17T11:59:38.174Z,16.83
2023-04-17T12:04:40.181Z,16.93
2023-04-17T12:09:42.143Z,16.89
2023-04-17T12:14:43.654Z,16.90
2023-04-17T12:19:45.117Z,16.98
2023-04-17T12:24:46.568Z,16.90
2023-04-17T12:29:48.066Z,16.81
2023-04-17T12:34:49.540Z,16.82
2023-04-17T12:39:51.044Z,16.98
2023-04-17T12:44:52.476Z,16.96
2023-04-17T12:49:53.887Z,16.90
2023-04-17T12:54:55.431Z,16.78
2023-04-17T12:59:56.879Z,16.86
2023-04-17T13:04:58.333Z,16.96
2023-04-17T13:09:59.923Z,17.10
2023-04-17T13:15:01.360Z,17.20
2023-04-17T13:20:02.929Z,17.31
2023-04-17T13:25:06.138Z,17.42
2023-04-17T13:30:08.297Z,17.57
2023-04-17T13:35:10.147Z,17.71
2023-04-17T13:40:11.921Z,17.81
2023-04-17T13:45:13.435Z,18.03
2023-04-17T13:50:14.942Z,18.36
2023-04-17T13:55:16.510Z,18.40
2023-04-17T14:00:18.305Z,18.22
2023-04-17T14:05:19.769Z,18.31
2023-04-17T14:10:21.216Z,18.22
2023-04-17T14:15:22.998Z,18.17
2023-04-17T14:20:25.050Z,18.19
2023-04-17T14:25:26.514Z,18.25
2023-04-17T14:30:28.013Z,18.09
2023-04-17T14:35:29.528Z,18.02
2023-04-17T14:40:31.096Z,18.03
2023-04-17T14:45:32.574Z,17.97
2023-04-17T14:50:34.089Z,17.77
2023-04-17T14:55:35.643Z,17.82
2023-04-17T15:00:37.124Z,17.94
2023-04-17T15:05:38.533Z,18.04
2023-04-17T15:10:50.219Z,17.79
2023-04-17T15:15:52.974Z,17.69
2023-04-17T15:20:54.486Z,17.77
2023-04-17T15:25:56.875Z,17.68
2023-04-17T15:30:58.369Z,17.66
2023-04-17T15:36:00.165Z,17.12
2023-04-17T15:41:01.621Z,16.97
2023-04-17T15:46:03.339Z,17.19
2023-04-17T15:51:05.141Z,17.16
2023-04-17T15:56:07.825Z,16.83
2023-04-17T16:01:09.246Z,16.67
2023-04-17T16:06:10.737Z,16.44
2023-04-17T16:11:12.204Z,16.29
2023-04-17T16:16:13.749Z,16.30
2023-04-17T16:21:15.320Z,16.65
2023-04-17T16:26:16.830Z,16.81
2023-04-17T16:31:18.324Z,16.94
2023-04-17T16:36:19.773Z,17.03
2023-04-17T16:41:21.203Z,17.06
2023-04-17T16:46:28.577Z,16.86
2023-04-17T16:51:41.579Z,16.82
2023-04-17T16:56:43.087Z,16.83
2023-04-17T17:01:44.522Z,16.74
2023-04-17T17:06:45.950Z,16.70
2023-04-17T17:11:47.635Z,16.69
2023-04-17T17:16:49.199Z,16.53
2023-04-17T17:21:50.737Z,16.51
2023-04-17T17:26:52.206Z,16.33
2023-04-17T17:31:53.682Z,16.14
2023-04-17T17:36:55.278Z,16.02
2023-04-17T17:41:56.701Z,15.87
2023-04-17T17:46:58.192Z,15.73
2023-04-17T17:51:59.717Z,15.48
2023-04-17T17:57:01.311Z,15.55
2023-04-17T18:02:02.968Z,15.40
2023-04-17T18:07:04.505Z,15.22
2023-04-17T18:12:06.284Z,15.15
2023-04-17T18:17:07.732Z,15.14
2023-04-17T18:22:09.646Z,15.03
2023-04-17T18:27:11.140Z,14.88
2023-04-17T18:32:12.695Z,14.51
2023-04-17T18:37:15.065Z,14.45
2023-04-17T18:42:18.434Z,14.50
2023-04-17T18:47:20.012Z,14.34
2023-04-17T18:52:21.691Z,14.25
2023-04-17T18:57:23.209Z,14.21
2023-04-17T19:02:24.925Z,14.26
2023-04-17T19:07:26.438Z,14.23
2023-04-17T19:12:27.934Z,14.11
2023-04-17T19:17:29.498Z,13.96
2023-04-17T19:22:30.926Z,13.91
2023-04-17T19:27:32.489Z,13.86
2023-04-17T19:32:34.015Z,13.77
2023-04-17T19:37:35.525Z,13.80
2023-04-17T19:42:36.928Z,13.75
2023-04-17T19:47:38.698Z,13.73
2023-04-17T19:52:40.209Z,13.82
2023-04-17T19:57:41.658Z,13.79
2023-04-17T20:02:43.541Z,13.76
2023-04-17T20:07:45.164Z,13.80
2023-04-17T20:12:46.629Z,13.81
2023-04-17T20:17:48.143Z,13.86
2023-04-17T20:22:49.698Z,13.88
2023-04-17T20:27:51.202Z,13.75
2023-04-17T20:32:52.799Z,13.77
2023-04-17T20:37:54.374Z,13.73
2023-04-17T20:42:55.854Z,13.67
2023-04-17T20:47:57.494Z,13.56
2023-04-17T20:52:58.943Z,13.51
2023-04-17T20:58:00.367Z,13.46
2023-04-17T21:03:02.099Z,13.46
2023-04-17T21:08:04.065Z,13.38
2023-04-17T21:13:05.554Z,13.37
2023-04-17T21:18:07.010Z,13.37
2023-04-17T21:23:08.613Z,13.39
2023-04-17T21:28:10.044Z,13.36
2023-04-17T21:33:11.553Z,13.37
2023-04-17T21:38:13.052Z,13.28
2023-04-17T21:43:14.656Z,13.31
2023-04-17T21:48:16.222Z,13.21
2023-04-17T21:53:17.750Z,13.04
2023-04-17T21:58:19.190Z,13.07
2023-04-17T22:03:21.716Z,13.13
2023-04-17T22:08:23.873Z,13.03
2023-04-17T22:13:25.346Z,13.14
2023-04-17T22:18:26.854Z,13.18
2023-04-17T22:23:28.354Z,13.17
2023-04-17T22:28:31.139Z,13.07
2023-04-17T22:33:32.546Z,13.13
2023-04-17T22:38:33.954Z,12.96
2023-04-17T22:43:35.393Z,12.87
2023-04-17T22:48:36.856Z,12.82
2023-04-17T22:53:38.844Z,12.85
2023-04-17T22:58:40.335Z,12.88
2023-04-17T23:03:41.767Z,12.84
2023-04-17T23:08:43.181Z,12.93
2023-04-17T23:13:44.606Z,12.98
2023-04-17T23:18:46.042Z,13.04
2023-04-17T23:23:48.490Z,13.01
2023-04-17T23:28:50.232Z,12.72
2023-04-17T23:33:51.711Z,12.75
2023-04-17T23:38:53.223Z,12.81
2023-04-17T23:43:54.649Z,12.82
2023-04-17T23:48:56.119Z,12.90
2023-04-17T23:53:59.411Z,12.94
2023-04-17T23:59:00.877Z,12.98
